Terminal Aerodrome Forecast
Issued by NWS Charleston, WV

Current Version | Previous Version | Graphics & Text | Print | Product List | Glossary On
Versions: 1 2 3 4 5 6 7 8 9 10 11 12 13 14 15 16 17 18 19 20 21
000
FTUS41 KRLX 250246 AAA
TAFBKW
TAF AMD
KBKW 250246Z 2503/2524 VRB04KT P6SM SCT250
     FM251800 32006KT P6SM SCT045
     FM252000 31004KT P6SM BKN250=

USA.gov is the U.S. government's official web portal to all federal, state and local government web resources and services.